Time;durP1;ratioP1;P1;durP2;ratioP2;P2;SDS_P1;SDS_P2;PMS_P1;PMS_P2;Temp;Humidity;BMP_temperature;BMP_pressure;BME280_temperature;BME280_humidity;BME280_pressure;Samples;Min_cycle;Max_cycle;Signal;HPM_P1;HPM_P2
2022/12/30 00:07:46;;;;;;;23.70;10.80;;;;;;;4.64;75.65;98257.20;420849;1299;98835;-39
2022/12/30 00:38:47;;;;;;;22.20;12.20;;;;;;;4.56;76.01;98266.87;420832;1292;98820;-40
2022/12/30 00:59:20;;;;;;;20.20;13.20;;;;;;;4.68;76.29;98251.96;420867;1299;99223;-38
2022/12/30 01:09:27;;;;;;;27.80;14.90;;;;;;;4.72;76.45;98262.20;420999;1299;111511;-39
2022/12/30 01:19:34;;;;;;;25.60;14.20;;;;;;;4.79;76.50;98255.16;420735;1291;109803;-40
2022/12/30 01:29:43;;;;;;;17.40;10.70;;;;;;;4.91;76.51;98260.39;420782;1298;99240;-40
2022/12/30 01:39:50;;;;;;;16.50;10.80;;;;;;;5.10;76.56;98256.02;420768;1300;107740;-40
2022/12/30 02:00:12;;;;;;;25.10;14.80;;;;;;;5.26;76.65;98287.74;420752;1291;110938;-40
2022/12/30 02:10:21;;;;;;;25.10;14.00;;;;;;;5.25;76.51;98275.13;420931;1297;106789;-41
2022/12/30 02:21:09;;;;;;;15.40;10.70;;;;;;;5.27;76.42;98277.55;420866;1290;98046;-40
2022/12/30 02:31:17;;;;;;;17.90;10.40;;;;;;;5.28;76.40;98273.14;420683;1295;111957;-40
2022/12/30 03:12:57;;;;;;;17.00;10.80;;;;;;;4.98;76.59;98284.02;420882;1298;107202;-40
2022/12/30 03:33:32;;;;;;;27.10;14.20;;;;;;;5.08;76.86;98293.45;420972;1291;106976;-40
2022/12/30 03:43:41;;;;;;;33.40;16.90;;;;;;;5.01;76.86;98303.73;420836;1289;98833;-39
2022/12/30 03:53:49;;;;;;;26.20;14.70;;;;;;;4.94;76.98;98313.42;420908;1291;113044;-39
2022/12/30 04:03:57;;;;;;;20.50;11.80;;;;;;;4.97;77.04;98334.24;420942;1298;108050;-40
2022/12/30 04:14:04;;;;;;;20.50;10.80;;;;;;;5.03;76.98;98343.36;420897;1298;99335;-41
2022/12/30 04:24:11;;;;;;;17.40;11.40;;;;;;;5.08;77.07;98342.14;420766;1292;108639;-40
2022/12/30 04:34:18;;;;;;;30.80;16.50;;;;;;;5.09;77.33;98355.57;420922;1292;99029;-41
2022/12/30 04:44:25;;;;;;;26.30;14.20;;;;;;;5.05;77.32;98375.45;420873;1298;111401;-41
2022/12/30 04:54:33;;;;;;;28.40;16.90;;;;;;;5.02;77.56;98386.13;420955;1291;108735;-39
2022/12/30 05:04:40;;;;;;;25.00;13.30;;;;;;;5.05;77.33;98407.25;420937;1295;97975;-41
2022/12/30 05:14:47;;;;;;;20.10;12.30;;;;;;;5.14;77.51;98414.32;420798;1298;108519;-39
2022/12/30 05:35:19;;;;;;;35.00;18.90;;;;;;;5.15;77.76;98429.80;420901;1292;111820;-39
2022/12/30 05:45:26;;;;;;;33.40;18.10;;;;;;;5.14;77.77;98449.35;420974;1295;107589;-40
2022/12/30 05:55:33;;;;;;;28.80;15.50;;;;;;;5.14;77.73;98473.50;420856;1292;99079;-39
2022/12/30 06:05:41;;;;;;;17.60;12.40;;;;;;;5.22;77.86;98478.70;420831;1292;107700;-40
2022/12/30 06:15:48;;;;;;;25.70;15.80;;;;;;;5.30;78.00;98491.38;420802;1288;101659;-40
2022/12/30 06:25:53;;;;;;;22.00;15.00;;;;;;;5.28;78.27;98500.20;420926;1294;113109;-39
2022/12/30 06:36:00;;;;;;;24.90;15.20;;;;;;;5.20;78.29;98505.87;420919;1299;107903;-40
2022/12/30 06:46:06;;;;;;;24.40;12.50;;;;;;;5.15;78.18;98519.31;420796;1298;99147;-40
2022/12/30 06:56:14;;;;;;;20.40;14.40;;;;;;;5.15;78.25;98537.95;420882;1298;109425;-39
2022/12/30 07:06:21;;;;;;;27.90;17.80;;;;;;;5.18;78.48;98553.35;420868;1295;99217;-40
2022/12/30 07:26:35;;;;;;;36.10;20.80;;;;;;;5.08;78.71;98571.92;420952;1292;107148;-42
2022/12/30 07:46:48;;;;;;;29.00;17.00;;;;;;;5.27;78.95;98607.96;420761;1299;107404;-40
2022/12/30 07:56:56;;;;;;;32.60;19.00;;;;;;;5.53;79.10;98628.06;420916;1291;99157;-40
2022/12/30 08:07:03;;;;;;;28.40;17.40;;;;;;;5.77;79.27;98646.46;420896;1299;111415;-40
2022/12/30 08:17:09;;;;;;;34.50;19.70;;;;;;;5.90;79.23;98668.20;420963;1297;108263;-40
2022/12/30 08:27:16;;;;;;;29.20;17.90;;;;;;;5.94;79.18;98688.21;420921;1291;99385;-40
2022/12/30 08:37:23;;;;;;;24.60;16.10;;;;;;;5.98;79.09;98702.02;420952;1298;108208;-40
2022/12/30 08:47:30;;;;;;;31.80;16.80;;;;;;;6.11;79.30;98711.42;420868;1299;99227;-40
2022/12/30 08:57:38;;;;;;;37.60;19.10;;;;;;;6.28;79.31;98727.33;420977;1298;111787;-43
2022/12/30 09:07:45;;;;;;;36.70;21.50;;;;;;;6.53;79.47;98738.59;420884;1292;106702;-40
2022/12/30 09:28:13;;;;;;;34.40;21.60;;;;;;;7.34;79.11;98752.25;421130;1294;99271;-40
2022/12/30 09:38:20;;;;;;;33.60;22.60;;;;;;;7.30;78.78;98745.09;420950;1295;109057;-41
2022/12/30 09:48:27;;;;;;;32.10;19.90;;;;;;;7.23;78.56;98754.02;420942;1298;99249;-40
2022/12/30 09:58:37;;;;;;;32.10;19.20;;;;;;;7.59;78.81;98758.55;420933;1295;107531;-40
2022/12/30 10:09:06;;;;;;;30.20;18.20;;;;;;;7.98;78.71;98751.64;421010;1298;99284;-40
2022/12/30 10:19:19;;;;;;;25.70;16.50;;;;;;;8.20;78.41;98754.80;420816;1288;112473;-41
2022/12/30 10:29:25;;;;;;;26.40;15.70;;;;;;;8.20;77.99;98758.13;420947;1295;108069;-41
2022/12/30 10:39:33;;;;;;;20.30;13.40;;;;;;;8.20;77.75;98772.67;420974;1295;98933;-40
2022/12/30 11:00:12;;;;;;;26.50;12.90;;;;;;;8.30;77.92;98772.84;420963;1299;99243;-41
2022/12/30 11:10:20;;;;;;;26.90;15.60;;;;;;;8.46;77.67;98765.30;420949;1297;113056;-41
2022/12/30 11:20:33;;;;;;;23.40;13.40;;;;;;;8.57;77.43;98760.42;420962;1292;107419;-40
2022/12/30 11:41:28;;;;;;;20.70;13.30;;;;;;;8.84;77.09;98748.64;420970;1296;106383;-40
2022/12/30 11:51:41;;;;;;;18.30;11.00;;;;;;;9.02;77.13;98754.02;421008;1299;99294;-40
2022/12/30 12:01:57;;;;;;;22.00;11.90;;;;;;;9.09;76.86;98752.65;420919;1297;111307;-41
2022/12/30 12:12:05;;;;;;;27.80;15.60;;;;;;;9.05;76.67;98757.28;420891;1304;108513;-40
2022/12/30 12:22:11;;;;;;;21.60;9.90;;;;;;;9.06;76.39;98764.58;420818;1290;99391;-41
2022/12/30 12:32:31;;;;;;;31.10;17.40;;;;;;;8.96;76.05;98754.19;420858;1299;108773;-40
2022/12/30 12:42:54;;;;;;;97.50;50.10;;;;;;;8.80;75.99;98742.36;421004;1295;99217;-40
2022/12/30 12:53:03;;;;;;;25.80;13.30;;;;;;;8.76;75.83;98726.25;420882;1292;112439;-40
2022/12/30 13:13:32;;;;;;;21.50;10.40;;;;;;;8.82;75.75;98719.06;420923;1292;97998;-41
2022/12/30 13:23:49;;;;;;;18.70;11.10;;;;;;;8.70;75.79;98718.82;420860;1299;107792;-40
2022/12/30 13:33:57;;;;;;;19.00;10.20;;;;;;;8.50;75.70;98717.73;420839;1298;99239;-40
2022/12/30 13:44:06;;;;;;;16.90;9.90;;;;;;;8.29;75.80;98720.67;420889;1285;111126;-41
2022/12/30 13:54:18;;;;;;;;;;;;;;;8.12;75.79;98727.46;420888;1298;109475;-41
2022/12/30 14:14:52;;;;;;;20.80;10.50;;;;;;;7.71;75.72;98736.75;420816;1299;110997;-40
2022/12/30 14:25:02;;;;;;;24.40;9.90;;;;;;;7.57;75.83;98742.23;420924;1287;107500;-40
2022/12/30 14:35:08;;;;;;;25.30;12.70;;;;;;;7.40;75.94;98750.94;420487;1292;384342;-41
2022/12/30 14:45:26;;;;;;;70.20;30.40;;;;;;;6.97;75.79;98753.09;420935;1298;107122;-40
2022/12/30 14:55:36;;;;;;;64.60;31.50;;;;;;;6.38;75.92;98752.39;421067;1291;99212;-41
2022/12/30 15:05:47;;;;;;;;;;;;;;;6.07;76.34;98755.63;420872;1292;111713;-40
2022/12/30 15:15:58;;;;;;;57.40;28.80;;;;;;;5.74;76.45;98771.40;420890;1291;107817;-41
2022/12/30 15:26:08;;;;;;;65.80;31.80;;;;;;;5.44;76.51;98778.11;420929;1298;98145;-39
2022/12/30 15:36:15;;;;;;;92.20;45.00;;;;;;;5.20;76.73;98784.41;420865;1298;107652;-41
2022/12/30 15:46:29;;;;;;;110.20;46.00;;;;;;;5.06;77.02;98779.40;420832;1295;99217;-40
2022/12/30 15:56:38;;;;;;;81.70;43.80;;;;;;;4.93;77.37;98783.80;420917;1291;111724;-40
2022/12/30 16:06:48;;;;;;;77.70;39.70;;;;;;;4.89;77.74;98791.59;420979;1298;109355;-40
2022/12/30 16:16:55;;;;;;;70.00;37.50;;;;;;;4.78;78.00;98802.07;421096;1285;99135;-40
2022/12/30 16:27:03;;;;;;;81.90;46.70;;;;;;;4.59;78.18;98797.71;421072;1298;106822;-40
2022/12/30 16:37:21;;;;;;;68.40;40.80;;;;;;;4.42;78.34;98788.54;420764;1298;99245;-40
2022/12/30 16:47:50;;;;;;;66.10;35.20;;;;;;;4.38;78.62;98779.92;420916;1291;111033;-40
2022/12/30 16:57:58;;;;;;;54.60;34.20;;;;;;;4.35;78.88;98784.36;420886;1298;107688;-40
2022/12/30 17:08:04;;;;;;;61.40;35.50;;;;;;;4.27;79.09;98767.78;420826;1291;98967;-40
2022/12/30 17:18:11;;;;;;;84.40;47.80;;;;;;;4.18;79.30;98760.67;420846;1281;107186;-40
2022/12/30 17:28:17;;;;;;;80.90;44.90;;;;;;;4.02;79.55;98764.96;420773;1290;99253;-39
2022/12/30 17:38:28;;;;;;;70.80;42.80;;;;;;;3.86;79.86;98763.38;420815;1299;112971;-41
2022/12/30 17:48:35;;;;;;;108.80;55.40;;;;;;;3.72;80.27;98753.55;420851;1295;108341;-40
2022/12/30 17:58:42;;;;;;;112.30;59.50;;;;;;;3.55;80.49;98753.45;420779;1299;99243;-40
2022/12/30 18:08:48;;;;;;;74.30;44.30;;;;;;;3.44;80.79;98761.63;420815;1298;109647;-40
2022/12/30 18:18:55;;;;;;;93.10;50.00;;;;;;;3.37;80.84;98758.21;420814;1295;99226;-39
2022/12/30 18:29:04;;;;;;;103.20;57.60;;;;;;;3.28;81.06;98737.30;420835;1298;110466;-40
2022/12/30 18:39:11;;;;;;;96.80;54.60;;;;;;;3.17;81.26;98729.55;420900;1298;107839;-40
2022/12/30 18:49:18;;;;;;;100.60;57.30;;;;;;;3.06;81.38;98727.70;420895;1292;99271;-39
2022/12/30 18:59:25;;;;;;;104.80;57.60;;;;;;;2.93;81.58;98726.59;420771;1290;107361;-40
2022/12/30 19:09:33;;;;;;;108.60;59.30;;;;;;;2.83;82.07;98723.02;420847;1293;98586;-40
2022/12/30 19:19:41;;;;;;;108.90;58.00;;;;;;;2.73;82.36;98708.84;420938;1298;112948;-40
2022/12/30 19:29:49;;;;;;;121.30;62.30;;;;;;;2.66;83.04;98699.66;420968;1291;109408;-38
2022/12/30 19:39:56;;;;;;;108.90;58.30;;;;;;;2.68;83.31;98703.98;421029;1291;99042;-40
2022/12/30 19:50:07;;;;;;;109.70;57.40;;;;;;;2.63;83.51;98709.80;420878;1292;106163;-39
2022/12/30 20:00:16;;;;;;;104.50;56.00;;;;;;;2.55;83.91;98692.30;420876;1290;99103;-40
2022/12/30 20:10:21;;;;;;;102.90;55.50;;;;;;;2.46;84.16;98701.86;421030;1292;111412;-40
2022/12/30 20:30:54;;;;;;;100.60;56.20;;;;;;;2.30;84.62;98706.84;421040;1291;99221;-40
2022/12/30 20:41:03;;;;;;;101.10;59.20;;;;;;;2.24;84.69;98700.52;420941;1298;107595;-40
2022/12/30 20:51:10;;;;;;;105.20;58.00;;;;;;;2.15;84.88;98695.64;420902;1298;98828;-39
2022/12/30 21:01:21;;;;;;;99.40;54.60;;;;;;;2.12;85.11;98681.67;421107;1294;110369;-39
2022/12/30 21:11:29;;;;;;;109.00;56.80;;;;;;;2.16;85.41;98661.77;420968;1283;108903;-41
2022/12/30 21:21:35;;;;;;;103.80;55.10;;;;;;;2.18;85.72;98659.02;420957;1291;99184;-40
2022/12/30 21:31:43;;;;;;;103.10;55.80;;;;;;;2.20;85.84;98644.16;421036;1291;109460;-39
2022/12/30 22:13:04;;;;;;;93.40;52.40;;;;;;;2.27;86.54;98624.39;420910;1294;98107;-40
2022/12/30 22:23:14;;;;;;;94.20;50.30;;;;;;;2.20;86.59;98614.93;420830;1282;107805;-39
2022/12/30 22:33:21;;;;;;;99.20;52.00;;;;;;;2.11;86.62;98609.48;420967;1290;98043;-40
2022/12/30 22:43:29;;;;;;;102.80;54.70;;;;;;;1.99;86.67;98592.67;420949;1298;111940;-44
2022/12/30 22:53:36;;;;;;;103.40;55.40;;;;;;;1.97;86.72;98577.73;420907;1292;108655;-43
2022/12/30 23:03:43;;;;;;;102.90;54.00;;;;;;;1.94;86.75;98573.63;420832;1289;99125;-38
2022/12/30 23:34:42;;;;;;;123.70;63.60;;;;;;;1.82;86.92;98548.15;420878;1283;111103;-38
2022/12/30 23:44:50;;;;;;;134.50;65.10;;;;;;;1.75;86.98;98552.65;420914;1292;107258;-39
2022/12/30 23:54:58;;;;;;;88.50;46.60;;;;;;;1.85;87.38;98531.15;420833;1295;99383;-39
